PKNJT WILL-WIII
Flight info
| Callsign | PKNJT |
|---|---|
| Flight time | 0h 29m |
| Altitude | 21000 |
| Route | TKG |
| Aircraft | LJ35/M-SGHRWXY/SB1 |
Departure
| Time | 2026-04-17 13:02 |
|---|---|
| Airport | Radin Inten II International Airport (WILL) |
Arrival
| Time | 2026-04-17 13:31 |
|---|---|
| Airport | Soekarno-Hatta International Airport (WIII) |
| Time | Latitude | Longitude | Altitude | Speed | Heading |
|---|---|---|---|---|---|
| 2026-04-17 12:33 | -5.24300 | 105.17705 | 267 ft | 0 kts | 230° |
| 2026-04-17 12:41 | -5.24307 | 105.17719 | 267 ft | 14 kts | 44° |
| 2026-04-17 12:41 | -5.24291 | 105.17717 | 267 ft | 0 kts | 229° |
| 2026-04-17 12:57 | -5.24292 | 105.17715 | 267 ft | 1 kts | 226° |
| 2026-04-17 12:57 | -5.24295 | 105.17737 | 267 ft | 10 kts | 53° |
| 2026-04-17 12:57 | -5.24322 | 105.17819 | 266 ft | 13 kts | 138° |
| 2026-04-17 12:57 | -5.24416 | 105.17899 | 266 ft | 21 kts | 139° |
| 2026-04-17 12:58 | -5.24481 | 105.17994 | 266 ft | 7 kts | 86° |
| 2026-04-17 12:58 | -5.24481 | 105.17995 | 266 ft | 0 kts | 85° |
| 2026-04-17 12:58 | -5.24480 | 105.18010 | 266 ft | 5 kts | 85° |
| 2026-04-17 12:59 | -5.24475 | 105.18074 | 265 ft | 13 kts | 86° |
| 2026-04-17 12:59 | -5.24544 | 105.18157 | 265 ft | 21 kts | 139° |
| 2026-04-17 12:59 | -5.24678 | 105.18269 | 266 ft | 29 kts | 139° |
| 2026-04-17 12:59 | -5.24856 | 105.18423 | 267 ft | 37 kts | 139° |
| 2026-04-17 13:00 | -5.25073 | 105.18606 | 267 ft | 44 kts | 140° |
| 2026-04-17 13:00 | -5.25311 | 105.18807 | 265 ft | 46 kts | 140° |
| 2026-04-17 13:00 | -5.25552 | 105.19008 | 265 ft | 31 kts | 146° |
| 2026-04-17 13:00 | -5.25626 | 105.19083 | 265 ft | 3 kts | 335° |
| 2026-04-17 13:01 | -5.25599 | 105.19051 | 265 ft | 7 kts | 321° |
| 2026-04-17 13:01 | -5.25586 | 105.19041 | 265 ft | 5 kts | 320° |
| 2026-04-17 13:01 | -5.25545 | 105.19006 | 265 ft | 11 kts | 320° |
| 2026-04-17 13:01 | -5.25457 | 105.18932 | 265 ft | 36 kts | 320° |
| 2026-04-17 13:02 | -5.24915 | 105.18471 | 268 ft | 166 kts | 320° |
| 2026-04-17 13:02 | -5.23952 | 105.17659 | 1560 ft | 187 kts | 323° |
| 2026-04-17 13:02 | -5.22786 | 105.16749 | 2941 ft | 216 kts | 324° |
| 2026-04-17 13:02 | -5.21526 | 105.15789 | 4769 ft | 241 kts | 325° |
| 2026-04-17 13:03 | -5.20082 | 105.14720 | 5986 ft | 261 kts | 326° |
| 2026-04-17 13:03 | -5.18629 | 105.13626 | 7625 ft | 262 kts | 323° |
| 2026-04-17 13:03 | -5.17226 | 105.12460 | 9281 ft | 262 kts | 321° |
| 2026-04-17 13:03 | -5.15800 | 105.11281 | 10654 ft | 270 kts | 326° |
| 2026-04-17 13:04 | -5.14059 | 105.10581 | 11964 ft | 273 kts | 352° |
| 2026-04-17 13:04 | -5.12149 | 105.10397 | 13295 ft | 279 kts | 359° |
| 2026-04-17 13:04 | -5.10181 | 105.10306 | 14514 ft | 286 kts | 0° |
| 2026-04-17 13:04 | -5.08162 | 105.10234 | 15712 ft | 293 kts | 0° |
| 2026-04-17 13:05 | -5.06097 | 105.10170 | 16904 ft | 299 kts | 0° |
| 2026-04-17 13:05 | -5.04023 | 105.10114 | 18073 ft | 306 kts | 0° |
| 2026-04-17 13:05 | -5.01870 | 105.10060 | 19104 ft | 312 kts | 0° |
| 2026-04-17 13:05 | -4.99680 | 105.10006 | 20152 ft | 317 kts | 0° |
| 2026-04-17 13:06 | -4.97422 | 105.09953 | 20831 ft | 339 kts | 0° |
| 2026-04-17 13:06 | -4.94927 | 105.09901 | 20862 ft | 376 kts | 0° |
| 2026-04-17 13:06 | -4.92212 | 105.10024 | 20859 ft | 405 kts | 12° |
| 2026-04-17 13:06 | -4.89494 | 105.11004 | 20856 ft | 426 kts | 30° |
| 2026-04-17 13:07 | -4.87115 | 105.12847 | 20855 ft | 440 kts | 47° |
| 2026-04-17 13:07 | -4.85341 | 105.15383 | 20855 ft | 449 kts | 64° |
| 2026-04-17 13:07 | -4.84367 | 105.18333 | 20854 ft | 456 kts | 80° |
| 2026-04-17 13:07 | -4.84265 | 105.21516 | 20856 ft | 461 kts | 96° |
| 2026-04-17 13:08 | -4.85071 | 105.24628 | 20849 ft | 464 kts | 112° |
| 2026-04-17 13:08 | -4.86678 | 105.27439 | 20855 ft | 467 kts | 124° |
| 2026-04-17 13:08 | -4.88689 | 105.30005 | 20857 ft | 469 kts | 129° |
| 2026-04-17 13:08 | -4.90855 | 105.32460 | 20857 ft | 470 kts | 131° |
| 2026-04-17 13:09 | -4.93091 | 105.34869 | 20858 ft | 471 kts | 133° |
| 2026-04-17 13:09 | -4.95351 | 105.37252 | 20866 ft | 471 kts | 133° |
| 2026-04-17 13:09 | -4.97621 | 105.39621 | 20865 ft | 472 kts | 133° |
| 2026-04-17 13:09 | -4.99904 | 105.41992 | 20865 ft | 472 kts | 133° |
| 2026-04-17 13:10 | -5.02190 | 105.44361 | 20866 ft | 472 kts | 133° |
| 2026-04-17 13:10 | -5.04468 | 105.46722 | 20866 ft | 472 kts | 133° |
| 2026-04-17 13:10 | -5.06746 | 105.49084 | 20865 ft | 470 kts | 133° |
| 2026-04-17 13:10 | -5.08978 | 105.51396 | 20871 ft | 451 kts | 133° |
| 2026-04-17 13:11 | -5.11118 | 105.53610 | 20867 ft | 436 kts | 133° |
| 2026-04-17 13:11 | -5.13208 | 105.55772 | 20860 ft | 426 kts | 133° |
| 2026-04-17 13:11 | -5.15238 | 105.57868 | 20855 ft | 419 kts | 133° |
| 2026-04-17 13:11 | -5.17260 | 105.59953 | 20854 ft | 416 kts | 133° |
| 2026-04-17 13:12 | -5.19274 | 105.62030 | 20858 ft | 413 kts | 133° |
| 2026-04-17 13:12 | -5.23261 | 105.66140 | 20865 ft | 402 kts | 133° |
| 2026-04-17 13:12 | -5.25199 | 105.68135 | 20863 ft | 402 kts | 133° |
| 2026-04-17 13:13 | -5.27154 | 105.70148 | 20864 ft | 405 kts | 133° |
| 2026-04-17 13:13 | -5.29128 | 105.72180 | 20863 ft | 406 kts | 133° |
| 2026-04-17 13:13 | -5.31105 | 105.74214 | 20864 ft | 407 kts | 133° |
| 2026-04-17 13:13 | -5.33083 | 105.76250 | 20864 ft | 408 kts | 133° |
| 2026-04-17 13:14 | -5.35071 | 105.78296 | 20865 ft | 409 kts | 133° |
| 2026-04-17 13:14 | -5.37060 | 105.80343 | 20872 ft | 410 kts | 133° |
| 2026-04-17 13:14 | -5.39053 | 105.82395 | 20873 ft | 410 kts | 133° |
| 2026-04-17 13:14 | -5.41054 | 105.84437 | 20872 ft | 410 kts | 135° |
| 2026-04-17 13:15 | -5.43262 | 105.86249 | 20873 ft | 411 kts | 143° |
| 2026-04-17 13:15 | -5.45573 | 105.87939 | 20874 ft | 411 kts | 142° |
| 2026-04-17 13:15 | -5.47870 | 105.89646 | 20874 ft | 411 kts | 142° |
| 2026-04-17 13:15 | -5.50145 | 105.91332 | 20868 ft | 408 kts | 142° |
| 2026-04-17 13:16 | -5.52425 | 105.93008 | 20144 ft | 407 kts | 142° |
| 2026-04-17 13:16 | -5.54705 | 105.94684 | 19546 ft | 404 kts | 142° |
| 2026-04-17 13:16 | -5.56959 | 105.96349 | 18995 ft | 400 kts | 142° |
| 2026-04-17 13:16 | -5.59194 | 105.97999 | 18467 ft | 397 kts | 142° |
| 2026-04-17 13:17 | -5.61404 | 105.99629 | 17927 ft | 393 kts | 142° |
| 2026-04-17 13:17 | -5.63600 | 106.01249 | 17394 ft | 389 kts | 142° |
| 2026-04-17 13:17 | -5.65775 | 106.02854 | 16850 ft | 386 kts | 142° |
| 2026-04-17 13:17 | -5.67929 | 106.04444 | 16348 ft | 383 kts | 142° |
| 2026-04-17 13:18 | -5.70074 | 106.06026 | 15849 ft | 380 kts | 142° |
| 2026-04-17 13:18 | -5.72172 | 106.07575 | 15385 ft | 378 kts | 142° |
| 2026-04-17 13:18 | -5.74281 | 106.09132 | 14874 ft | 374 kts | 142° |
| 2026-04-17 13:18 | -5.76371 | 106.10674 | 14228 ft | 372 kts | 142° |
| 2026-04-17 13:19 | -5.78449 | 106.12209 | 13647 ft | 368 kts | 142° |
| 2026-04-17 13:19 | -5.80505 | 106.13727 | 13017 ft | 365 kts | 142° |
| 2026-04-17 13:19 | -5.82543 | 106.15231 | 12421 ft | 362 kts | 142° |
| 2026-04-17 13:19 | -5.84565 | 106.16726 | 11861 ft | 359 kts | 142° |
| 2026-04-17 13:20 | -5.86570 | 106.18206 | 11324 ft | 356 kts | 142° |
| 2026-04-17 13:20 | -5.88586 | 106.19642 | 10802 ft | 355 kts | 147° |
| 2026-04-17 13:20 | -5.90792 | 106.20752 | 10299 ft | 353 kts | 155° |
| 2026-04-17 13:20 | -5.93075 | 106.21651 | 9832 ft | 351 kts | 158° |
| 2026-04-17 13:21 | -5.95347 | 106.22543 | 9350 ft | 349 kts | 155° |
| 2026-04-17 13:21 | -5.97518 | 106.23559 | 8883 ft | 346 kts | 152° |
| 2026-04-17 13:21 | -5.99673 | 106.24620 | 8458 ft | 343 kts | 153° |
| 2026-04-17 13:21 | -6.01841 | 106.25618 | 8032 ft | 342 kts | 154° |
| 2026-04-17 13:22 | -6.04009 | 106.26586 | 7640 ft | 340 kts | 154° |
| 2026-04-17 13:22 | -6.06159 | 106.27573 | 7247 ft | 338 kts | 153° |
| 2026-04-17 13:22 | -6.08279 | 106.28559 | 7034 ft | 332 kts | 153° |
| 2026-04-17 13:22 | -6.10269 | 106.29473 | 6842 ft | 300 kts | 153° |
| 2026-04-17 13:23 | -6.12190 | 106.30357 | 5836 ft | 304 kts | 153° |
| 2026-04-17 13:23 | -6.14061 | 106.31296 | 5103 ft | 296 kts | 146° |
| 2026-04-17 13:23 | -6.15573 | 106.32543 | 5027 ft | 267 kts | 134° |
| 2026-04-17 13:23 | -6.16770 | 106.33856 | 5018 ft | 244 kts | 127° |
| 2026-04-17 13:24 | -6.17698 | 106.35187 | 5004 ft | 227 kts | 119° |
| 2026-04-17 13:24 | -6.18418 | 106.36541 | 4999 ft | 214 kts | 120° |
| 2026-04-17 13:24 | -6.19510 | 106.37492 | 4999 ft | 209 kts | 154° |
| 2026-04-17 13:24 | -6.20840 | 106.38011 | 5000 ft | 200 kts | 144° |
| 2026-04-17 13:25 | -6.21464 | 106.38659 | 5003 ft | 193 kts | 119° |
| 2026-04-17 13:25 | -6.22084 | 106.40314 | 4948 ft | 190 kts | 107° |
| 2026-04-17 13:25 | -6.22489 | 106.41589 | 4938 ft | 192 kts | 107° |
| 2026-04-17 13:25 | -6.22699 | 106.42456 | 4926 ft | 193 kts | 94° |
| 2026-04-17 13:26 | -6.22435 | 106.43774 | 4744 ft | 200 kts | 69° |
| 2026-04-17 13:26 | -6.21688 | 106.45080 | 3600 ft | 233 kts | 57° |
| 2026-04-17 13:26 | -6.21075 | 106.46596 | 2861 ft | 238 kts | 77° |
| 2026-04-17 13:26 | -6.20761 | 106.48192 | 2553 ft | 223 kts | 77° |
| 2026-04-17 13:27 | -6.20268 | 106.49586 | 2490 ft | 202 kts | 68° |
| 2026-04-17 13:27 | -6.19740 | 106.50838 | 2543 ft | 186 kts | 69° |
| 2026-04-17 13:27 | -6.19257 | 106.52000 | 2561 ft | 179 kts | 69° |
| 2026-04-17 13:27 | -6.18807 | 106.53161 | 2381 ft | 176 kts | 70° |
| 2026-04-17 13:28 | -6.18337 | 106.54293 | 2179 ft | 175 kts | 68° |
| 2026-04-17 13:28 | -6.17841 | 106.55400 | 1871 ft | 179 kts | 66° |
| 2026-04-17 13:28 | -6.17276 | 106.56532 | 1589 ft | 182 kts | 64° |
| 2026-04-17 13:28 | -6.16700 | 106.57635 | 1378 ft | 178 kts | 73° |
| 2026-04-17 13:29 | -6.16449 | 106.58865 | 1067 ft | 182 kts | 71° |
| 2026-04-17 13:29 | -6.16026 | 106.60049 | 847 ft | 183 kts | 68° |
| 2026-04-17 13:29 | -6.15548 | 106.61189 | 660 ft | 170 kts | 69° |
| 2026-04-17 13:29 | -6.15132 | 106.62247 | 515 ft | 150 kts | 69° |
| 2026-04-17 13:30 | -6.14748 | 106.63180 | 302 ft | 142 kts | 66° |
| 2026-04-17 13:30 | -6.14324 | 106.64182 | 154 ft | 178 kts | 68° |
| 2026-04-17 13:30 | -6.13912 | 106.65219 | 39 ft | 133 kts | 68° |
| 2026-04-17 13:30 | -6.13634 | 106.65918 | 34 ft | 88 kts | 68° |
| 2026-04-17 13:31 | -6.13430 | 106.66424 | 36 ft | 70 kts | 68° |
| 2026-04-17 13:31 | -6.13246 | 106.66677 | 35 ft | 37 kts | 37° |
| 2026-04-17 13:31 | -6.13139 | 106.66670 | 33 ft | 15 kts | 261° |
| 2026-04-17 13:31 | -6.13186 | 106.66555 | 33 ft | 21 kts | 248° |
| 2026-04-17 13:32 | -6.13246 | 106.66404 | 33 ft | 26 kts | 248° |
| 2026-04-17 13:32 | -6.13296 | 106.66276 | 33 ft | 17 kts | 248° |
| 2026-04-17 13:32 | -6.13311 | 106.66239 | 33 ft | 0 kts | 248° |
| 2026-04-17 13:32 | -6.13318 | 106.66220 | 33 ft | 6 kts | 248° |
| 2026-04-17 13:33 | -6.13343 | 106.66156 | 33 ft | 13 kts | 250° |
| 2026-04-17 13:33 | -6.13390 | 106.66040 | 33 ft | 23 kts | 248° |
| 2026-04-17 13:33 | -6.13458 | 106.65876 | 32 ft | 28 kts | 247° |
| 2026-04-17 13:33 | -6.13494 | 106.65785 | 32 ft | 1 kts | 249° |
| 2026-04-17 13:34 | -6.13502 | 106.65766 | 32 ft | 6 kts | 249° |
| 2026-04-17 13:34 | -6.13525 | 106.65702 | 32 ft | 13 kts | 250° |
| 2026-04-17 13:34 | -6.13567 | 106.65599 | 32 ft | 19 kts | 248° |
| 2026-04-17 13:34 | -6.13625 | 106.65454 | 33 ft | 25 kts | 248° |
| 2026-04-17 13:35 | -6.13628 | 106.65318 | 33 ft | 21 kts | 335° |
| 2026-04-17 13:35 | -6.13543 | 106.65283 | 33 ft | 16 kts | 338° |
| 2026-04-17 13:35 | -6.13421 | 106.65236 | 32 ft | 22 kts | 339° |
| 2026-04-17 13:35 | -6.13299 | 106.65165 | 32 ft | 22 kts | 298° |
| 2026-04-17 13:36 | -6.13188 | 106.65074 | 32 ft | 9 kts | 349° |
| 2026-04-17 13:36 | -6.13152 | 106.65072 | 32 ft | 1 kts | 5° |
| 2026-04-17 13:36 | -6.13122 | 106.65078 | 32 ft | 8 kts | 11° |
| 2026-04-17 13:36 | -6.13051 | 106.65092 | 32 ft | 11 kts | 36° |
| 2026-04-17 13:37 | -6.13044 | 106.65112 | 32 ft | 2 kts | 92° |
| 2026-04-17 13:37 | -6.13050 | 106.65140 | 32 ft | 3 kts | 105° |
| 2026-04-17 13:37 | -6.13053 | 106.65152 | 32 ft | 2 kts | 104° |
| 2026-04-17 13:37 | -6.13054 | 106.65156 | 32 ft | 0 kts | 104° |